Time;durP1;ratioP1;P1;durP2;ratioP2;P2;SDS_P1;SDS_P2;PMS_P1;PMS_P2;Temp;Humidity;BMP_temperature;BMP_pressure;BME280_temperature;BME280_humidity;BME280_pressure;Samples;Min_cycle;Max_cycle;Signal;HPM_P1;HPM_P2
2020/12/12 00:01:42;;;;;;;9.70;8.43;;;7.40;99.90;;;;;;4935994;29;20689;-64
2020/12/12 00:04:08;;;;;;;10.27;8.00;;;7.40;99.90;;;;;;4936060;29;20423;-64
2020/12/12 00:06:34;;;;;;;10.53;8.20;;;7.50;99.90;;;;;;4935690;29;20183;-65
2020/12/12 00:08:59;;;;;;;10.97;9.20;;;7.40;99.90;;;;;;4935874;29;20181;-65
2020/12/12 00:11:25;;;;;;;13.03;8.37;;;7.40;99.90;;;;;;4935904;29;20179;-65
2020/12/12 00:13:50;;;;;;;10.83;9.10;;;7.40;99.90;;;;;;4935839;29;20175;-65
2020/12/12 00:16:17;;;;;;;9.20;8.30;;;7.50;99.90;;;;;;4935645;29;20258;-65
2020/12/12 00:18:43;;;;;;;12.47;8.77;;;7.50;99.90;;;;;;4935829;29;20676;-66
2020/12/12 00:21:10;;;;;;;10.80;9.13;;;7.30;99.90;;;;;;4935794;29;20435;-65
2020/12/12 00:23:36;;;;;;;11.83;9.93;;;7.30;99.90;;;;;;4935756;29;20431;-65
2020/12/12 00:26:02;;;;;;;10.90;8.63;;;7.30;99.90;;;;;;4935898;29;20430;-65
2020/12/12 00:28:27;;;;;;;11.80;9.60;;;7.40;99.90;;;;;;4935803;29;20926;-65
2020/12/12 00:30:53;;;;;;;12.23;9.10;;;7.30;99.90;;;;;;4935513;29;20179;-65
2020/12/12 00:33:18;;;;;;;10.97;8.87;;;7.40;99.90;;;;;;4935799;29;20188;-65
2020/12/12 00:35:44;;;;;;;8.70;7.80;;;7.40;99.90;;;;;;4935586;29;20266;-66
2020/12/12 00:38:09;;;;;;;9.57;8.00;;;7.40;99.90;;;;;;4935758;29;20667;-66
2020/12/12 00:40:35;;;;;;;10.03;8.80;;;7.40;99.90;;;;;;4935626;29;20606;-67
2020/12/12 00:43:00;;;;;;;10.20;8.83;;;7.40;99.90;;;;;;4935394;29;20593;-66
2020/12/12 00:45:26;;;;;;;11.90;9.60;;;7.30;99.90;;;;;;4934738;29;20520;-66
2020/12/12 00:47:51;;;;;;;10.37;8.07;;;7.30;99.90;;;;;;4935766;29;20190;-65
2020/12/12 00:50:17;;;;;;;9.80;8.60;;;7.50;99.90;;;;;;4935592;29;20175;-65
2020/12/12 00:52:42;;;;;;;12.87;10.00;;;7.40;99.90;;;;;;4935502;29;20235;-65
2020/12/12 00:55:08;;;;;;;8.83;8.00;;;7.50;99.90;;;;;;4935454;29;20242;-65
2020/12/12 00:57:34;;;;;;;11.70;8.90;;;7.50;99.90;;;;;;4935469;29;20269;-65
2020/12/12 00:59:59;;;;;;;11.03;7.63;;;7.40;99.90;;;;;;4935542;29;20265;-65
2020/12/12 01:02:24;;;;;;;10.10;8.50;;;7.40;99.90;;;;;;4935510;29;20183;-65
2020/12/12 01:04:50;;;;;;;12.53;8.33;;;7.50;99.90;;;;;;4935414;29;20183;-65
2020/12/12 01:07:15;;;;;;;10.80;8.90;;;7.40;99.90;;;;;;4935477;29;20643;-65
2020/12/12 01:09:41;;;;;;;9.33;8.30;;;7.50;99.90;;;;;;4935365;29;20199;-65
2020/12/12 01:12:06;;;;;;;11.47;8.80;;;7.50;99.90;;;;;;4935409;29;20183;-65
2020/12/12 01:14:32;;;;;;;9.80;7.67;;;7.50;99.90;;;;;;4935274;29;20590;-65
2020/12/12 01:17:00;;;;;;;11.70;9.10;;;7.50;99.90;;;;;;4935347;29;20238;-65
2020/12/12 01:19:26;;;;;;;12.67;9.40;;;7.60;99.90;;;;;;4937169;29;20182;-65
2020/12/12 01:21:54;;;;;;;8.97;7.70;;;7.60;99.90;;;;;;4938612;29;20423;-65
2020/12/12 01:24:20;;;;;;;9.43;7.60;;;7.70;99.90;;;;;;4938667;29;20526;-65
2020/12/12 01:26:47;;;;;;;10.87;8.40;;;7.70;99.90;;;;;;4938588;29;20426;-64
2020/12/12 01:29:13;;;;;;;11.37;8.03;;;7.50;99.90;;;;;;4938467;29;20182;-65
2020/12/12 01:31:38;;;;;;;11.33;7.73;;;7.50;99.90;;;;;;4938432;29;20526;-65
2020/12/12 01:34:04;;;;;;;10.20;8.10;;;7.60;99.90;;;;;;4938593;29;20186;-65
2020/12/12 01:36:30;;;;;;;12.10;8.47;;;7.60;99.90;;;;;;4938317;29;20211;-65
2020/12/12 01:38:55;;;;;;;9.60;8.60;;;7.60;99.90;;;;;;4938413;29;20673;-65
2020/12/12 01:41:22;;;;;;;11.50;8.40;;;7.60;99.90;;;;;;4938386;29;20543;-65
2020/12/12 01:43:52;;;;;;;9.73;8.43;;;7.60;99.90;;;;;;4938065;29;20223;-64
2020/12/12 01:46:23;;;;;;;10.33;7.87;;;7.60;99.90;;;;;;4938191;29;20526;-64
2020/12/12 01:48:52;;;;;;;9.80;7.83;;;7.50;99.90;;;;;;4938153;29;20437;-64
2020/12/12 01:51:20;;;;;;;12.17;9.07;;;7.50;99.90;;;;;;4938209;29;20771;-64
2020/12/12 01:53:48;;;;;;;10.03;8.10;;;7.40;99.90;;;;;;4938013;29;20423;-64
2020/12/12 01:56:15;;;;;;;9.37;7.93;;;7.50;99.90;;;;;;4938085;29;20846;-64
2020/12/12 01:58:41;;;;;;;10.77;8.67;;;7.50;99.90;;;;;;4938002;29;20419;-65
2020/12/12 02:01:09;;;;;;;10.90;8.40;;;7.50;99.90;;;;;;4938072;29;20814;-65
2020/12/12 02:03:37;;;;;;;9.80;8.03;;;7.60;99.90;;;;;;4937787;29;20179;-65
2020/12/12 02:06:02;;;;;;;11.50;8.93;;;7.60;99.90;;;;;;4938015;29;20509;-65
2020/12/12 02:08:28;;;;;;;10.80;8.47;;;7.60;99.90;;;;;;4937134;29;20869;-65
2020/12/12 06:30:26;;;;;;;13.00;8.07;;;8.00;99.90;;;;;;5921438;23;20401;-71
2020/12/12 06:32:59;;;;;;;12.40;9.10;;;8.00;99.90;;;;;;4930207;29;20510;-64
2020/12/12 06:35:33;;;;;;;11.10;7.90;;;8.10;99.90;;;;;;4923304;29;20463;-65
2020/12/12 06:41:33;;;;;;;13.90;9.00;;;8.10;99.90;;;;;;4944066;29;20223;-65
2020/12/12 06:43:58;;;;;;;15.10;10.43;;;8.20;99.90;;;;;;4937896;29;20411;-65
2020/12/12 06:46:53;;;;;;;10.73;8.23;;;8.20;99.90;;;;;;4937347;29;20488;-65
2020/12/12 06:49:21;;;;;;;12.40;8.73;;;8.30;99.90;;;;;;4937743;29;20558;-65
2020/12/12 06:51:48;;;;;;;12.23;8.67;;;8.30;99.90;;;;;;4937684;29;20812;-65
2020/12/12 06:57:43;;;;;;;9.23;6.80;;;8.30;99.90;;;;;;4937348;29;20463;-65
2020/12/12 07:03:31;;;;;;;11.30;7.90;;;8.30;99.90;;;;;;4937346;29;20411;-64
2020/12/12 07:06:06;;;;;;;11.30;7.80;;;8.40;99.90;;;;;;4937353;29;20450;-66
2020/12/12 07:08:31;;;;;;;10.80;8.20;;;8.40;99.90;;;;;;4937100;29;20174;-66
2020/12/12 07:10:57;;;;;;;17.20;8.23;;;8.40;99.90;;;;;;4937351;29;20431;-68
2020/12/12 07:13:23;;;;;;;12.97;8.50;;;8.50;99.90;;;;;;4936987;29;20242;-65
2020/12/12 07:19:11;;;;;;;12.13;8.20;;;8.40;99.90;;;;;;4936898;29;20295;-64
2020/12/12 07:24:58;;;;;;;10.40;7.80;;;8.40;99.90;;;;;;4936516;29;20918;-64
2020/12/12 07:27:24;;;;;;;12.70;9.10;;;8.40;99.90;;;;;;4936450;29;20438;-64
2020/12/12 07:29:50;;;;;;;11.00;8.60;;;8.40;99.90;;;;;;4936722;29;20497;-64
2020/12/12 07:32:16;;;;;;;9.07;7.40;;;8.40;99.90;;;;;;4936575;29;20535;-64
2020/12/12 07:34:42;;;;;;;13.00;9.10;;;8.40;99.90;;;;;;4936838;29;20190;-64
2020/12/12 07:37:10;;;;;;;13.00;7.37;;;8.40;99.90;;;;;;4936661;29;20475;-64
2020/12/12 07:39:38;;;;;;;13.13;9.20;;;8.40;99.90;;;;;;4936877;29;20182;-64
2020/12/12 07:45:44;;;;;;;13.17;7.80;;;8.30;99.90;;;;;;4936549;29;20430;-64
2020/12/12 07:48:10;;;;;;;11.60;8.57;;;8.40;99.90;;;;;;4936870;29;20415;-64
2020/12/12 07:50:37;;;;;;;12.70;8.67;;;8.50;99.90;;;;;;4936410;29;20442;-64
2020/12/12 07:56:25;;;;;;;9.90;7.20;;;8.40;99.90;;;;;;4936333;29;20475;-64
2020/12/12 07:59:02;;;;;;;11.50;8.10;;;8.50;99.90;;;;;;4936631;29;20486;-64
2020/12/12 08:01:28;;;;;;;11.10;8.03;;;8.50;99.90;;;;;;4936640;29;20426;-64
2020/12/12 08:07:21;;;;;;;8.73;6.97;;;8.60;99.90;;;;;;4936480;29;20176;-64
2020/12/12 08:09:47;;;;;;;10.73;7.40;;;8.60;99.90;;;;;;4936476;29;20423;-65
2020/12/12 08:15:39;;;;;;;9.83;8.10;;;8.60;99.90;;;;;;4936054;29;21036;-62
2020/12/12 08:18:14;;;;;;;12.85;9.02;;;8.90;99.90;;;;;;4935238;29;20421;-66
2020/12/12 08:24:07;;;;;;;11.40;7.90;;;9.00;99.90;;;;;;4935982;29;20507;-65
2020/12/12 08:29:59;;;;;;;15.10;8.80;;;8.80;99.90;;;;;;4939900;29;20981;-63
2020/12/12 08:35:46;;;;;;;18.13;8.67;;;9.00;99.90;;;;;;4939747;29;20518;-65
2020/12/12 08:41:36;;;;;;;13.43;7.57;;;9.40;99.90;;;;;;4939691;29;20207;-64
2020/12/12 08:47:23;;;;;;;9.63;7.17;;;9.20;99.90;;;;;;4939806;29;20478;-64
2020/12/12 08:49:55;;;;;;;10.83;7.63;;;9.10;99.90;;;;;;4939794;29;20426;-64
2020/12/12 08:52:26;;;;;;;9.10;7.40;;;9.10;99.90;;;;;;4939744;29;20544;-64
2020/12/12 08:55:03;;;;;;;11.20;8.20;;;9.10;99.90;;;;;;4939609;29;20430;-64
2020/12/12 08:57:28;;;;;;;10.87;7.30;;;9.00;99.90;;;;;;4939645;29;20430;-64
2020/12/12 09:00:01;;;;;;;10.23;6.50;;;9.00;99.90;;;;;;4939239;29;20841;-64
2020/12/12 09:02:27;;;;;;;10.67;8.17;;;9.10;99.90;;;;;;4939775;29;20591;-64
2020/12/12 09:08:16;;;;;;;12.40;8.40;;;9.10;99.90;;;;;;4939229;29;20466;-64
2020/12/12 09:10:42;;;;;;;8.80;6.60;;;9.20;99.90;;;;;;4939328;29;20895;-66
2020/12/12 09:16:29;;;;;;;9.17;6.73;;;9.20;99.90;;;;;;4939099;29;20222;-66
2020/12/12 09:22:16;;;;;;;10.03;7.27;;;9.10;99.90;;;;;;4938855;29;20170;-64
2020/12/12 09:24:42;;;;;;;8.43;7.07;;;9.20;99.90;;;;;;4939214;29;20506;-65
2020/12/12 09:30:29;;;;;;;8.93;7.20;;;9.10;99.90;;;;;;4938673;29;20170;-76
2020/12/12 09:32:55;;;;;;;10.00;7.20;;;9.10;99.90;;;;;;4938933;29;20427;-79
2020/12/12 09:38:43;;;;;;;8.97;7.37;;;9.10;99.90;;;;;;4926893;29;20305;-76
2020/12/12 09:41:09;;;;;;;7.90;6.70;;;9.10;99.90;;;;;;4938343;29;20521;-79
2020/12/12 09:43:34;;;;;;;8.47;6.67;;;9.10;99.90;;;;;;4939728;29;20510;-81
2020/12/12 09:46:00;;;;;;;11.00;8.30;;;9.10;99.90;;;;;;4940999;29;20175;-74
2020/12/12 09:48:26;;;;;;;11.00;7.37;;;9.10;99.90;;;;;;4939307;29;20179;-70
2020/12/12 09:54:14;;;;;;;8.03;6.70;;;9.20;99.90;;;;;;4938392;29;20295;-75
2020/12/12 09:56:39;;;;;;;7.87;6.57;;;9.10;99.90;;;;;;4938447;29;20482;-73
2020/12/12 09:59:05;;;;;;;8.73;6.90;;;9.10;99.90;;;;;;4938452;29;20427;-72
2020/12/12 10:04:52;;;;;;;9.37;7.60;;;9.20;99.90;;;;;;4938171;29;20223;-72
2020/12/12 10:10:40;;;;;;;8.30;7.10;;;9.20;99.90;;;;;;4938153;29;20226;-72
2020/12/12 10:16:28;;;;;;;10.03;6.87;;;9.30;99.90;;;;;;4938024;29;20628;-72
2020/12/12 10:18:53;;;;;;;9.90;7.20;;;9.30;99.90;;;;;;4937985;29;20431;-74
2020/12/12 10:21:19;;;;;;;8.53;6.97;;;9.40;99.90;;;;;;4938269;29;20183;-77
2020/12/12 10:27:06;;;;;;;9.70;7.30;;;9.40;99.90;;;;;;4937207;29;20174;-75
2020/12/12 10:29:31;;;;;;;10.73;6.63;;;9.40;99.90;;;;;;4937329;29;20443;-75
2020/12/12 10:31:57;;;;;;;8.53;6.40;;;9.40;99.90;;;;;;4937360;29;20231;-75
2020/12/12 10:34:22;;;;;;;8.33;6.67;;;9.50;99.90;;;;;;4937778;29;20179;-75
2020/12/12 10:36:48;;;;;;;7.80;6.53;;;9.50;99.90;;;;;;4937799;29;20745;-75
2020/12/12 10:42:36;;;;;;;10.47;6.23;;;9.60;99.90;;;;;;4938043;29;20527;-82
2020/12/12 10:45:03;;;;;;;9.00;6.07;;;9.50;99.90;;;;;;4937764;29;20486;-76
2020/12/12 10:50:50;;;;;;;6.33;4.90;;;9.50;99.90;;;;;;4937486;29;20463;-79
2020/12/12 10:53:16;;;;;;;7.13;5.40;;;9.50;99.90;;;;;;4937643;29;20434;-79
2020/12/12 10:55:41;;;;;;;5.97;4.77;;;9.70;99.90;;;;;;4937260;29;20654;-77
2020/12/12 10:58:07;;;;;;;5.53;4.50;;;9.70;99.90;;;;;;4937469;29;20187;-79
2020/12/12 11:00:40;;;;;;;6.13;4.33;;;9.70;99.90;;;;;;4937298;29;20550;-78
2020/12/12 11:03:07;;;;;;;8.17;5.33;;;9.70;99.90;;;;;;4937397;29;20175;-80
2020/12/12 11:05:33;;;;;;;6.10;4.90;;;9.70;99.90;;;;;;4937852;29;20430;-79
2020/12/12 11:07:58;;;;;;;6.07;4.63;;;9.70;99.90;;;;;;4937551;29;20776;-78
2020/12/12 11:10:24;;;;;;;7.03;4.73;;;9.70;99.90;;;;;;4935809;29;20191;-76
2020/12/12 11:16:17;;;;;;;5.63;3.97;;;9.70;99.90;;;;;;4936876;29;20289;-72
2020/12/12 11:18:43;;;;;;;5.40;4.20;;;9.70;99.90;;;;;;4937413;29;20419;-75
2020/12/12 11:21:08;;;;;;;6.13;5.00;;;9.70;99.90;;;;;;4938068;29;21017;-75
2020/12/12 11:23:35;;;;;;;4.90;3.90;;;9.80;99.90;;;;;;4937976;29;20216;-85
2020/12/12 11:26:00;;;;;;;5.00;4.50;;;9.80;99.90;;;;;;4937742;29;20322;-87
2020/12/12 11:28:26;;;;;;;5.03;4.50;;;9.80;99.90;;;;;;4938244;29;20435;-85
2020/12/12 11:30:51;;;;;;;4.47;4.07;;;9.80;99.90;;;;;;4937874;29;20303;-86
2020/12/12 11:33:17;;;;;;;5.97;5.37;;;9.70;99.90;;;;;;4936861;29;20175;-84
2020/12/12 11:43:41;;;;;;;4.60;4.07;;;9.50;99.90;;;;;;4937012;29;20407;-82
2020/12/12 11:52:09;;;;;;;6.23;4.90;;;9.60;99.90;;;;;;4936350;29;20406;-78
2020/12/12 11:54:34;;;;;;;6.03;4.67;;;9.60;99.90;;;;;;4936515;29;20427;-74
2020/12/12 11:57:04;;;;;;;5.30;4.80;;;9.60;99.90;;;;;;4936247;29;20471;-77
2020/12/12 11:59:30;;;;;;;7.20;4.50;;;9.70;99.90;;;;;;4936664;29;20179;-77
2020/12/12 12:01:55;;;;;;;6.73;6.03;;;9.60;99.90;;;;;;4936397;29;20953;-77
2020/12/12 12:04:21;;;;;;;7.27;5.50;;;9.60;99.90;;;;;;4936473;29;20178;-81
2020/12/12 12:06:46;;;;;;;8.33;5.33;;;9.50;99.90;;;;;;4936625;29;20694;-76
2020/12/12 12:09:24;;;;;;;6.20;5.20;;;9.50;99.90;;;;;;4936529;29;20265;-77
2020/12/12 12:11:51;;;;;;;9.83;5.67;;;9.50;99.90;;;;;;4936243;29;20175;-77
2020/12/12 12:14:16;;;;;;;6.83;6.13;;;9.50;99.90;;;;;;4936177;29;20921;-77
2020/12/12 12:16:42;;;;;;;6.07;5.47;;;9.50;99.90;;;;;;4936088;29;20718;-76
2020/12/12 12:19:12;;;;;;;6.83;5.17;;;9.40;99.90;;;;;;4936450;29;20178;-76
2020/12/12 12:21:39;;;;;;;9.47;5.27;;;9.40;99.90;;;;;;4936447;29;20593;-77
2020/12/12 12:24:07;;;;;;;8.43;5.30;;;9.40;99.90;;;;;;4936049;29;20435;-74
2020/12/12 12:29:54;;;;;;;7.87;5.43;;;9.50;99.90;;;;;;4936003;29;20415;-79
2020/12/12 12:32:20;;;;;;;5.93;5.43;;;9.40;99.90;;;;;;4936204;29;20423;-78
2020/12/12 12:34:45;;;;;;;7.70;5.80;;;9.40;99.90;;;;;;4936101;29;20299;-84
2020/12/12 12:37:11;;;;;;;7.37;6.03;;;9.50;99.90;;;;;;4936084;29;20236;-79
2020/12/12 12:39:36;;;;;;;6.83;5.43;;;9.50;99.90;;;;;;4935745;29;20219;-79
2020/12/12 12:42:04;;;;;;;6.10;5.50;;;9.50;99.90;;;;;;4935832;29;20543;-78
2020/12/12 12:44:31;;;;;;;8.07;5.30;;;9.70;99.90;;;;;;4936137;29;20186;-81
2020/12/12 12:46:57;;;;;;;6.20;5.60;;;9.60;99.90;;;;;;4936120;29;20518;-77
2020/12/12 12:49:22;;;;;;;7.33;6.00;;;9.60;99.90;;;;;;4936032;29;20518;-76
2020/12/12 12:51:49;;;;;;;5.60;4.63;;;9.70;99.90;;;;;;4936075;29;20698;-77
2020/12/12 12:54:15;;;;;;;6.63;5.60;;;9.60;99.90;;;;;;4936108;29;20183;-78
2020/12/12 12:56:41;;;;;;;7.30;5.30;;;9.60;99.90;;;;;;4935510;29;21051;-76
2020/12/12 12:59:06;;;;;;;7.20;5.07;;;9.60;99.90;;;;;;4935987;29;20185;-75
2020/12/12 13:01:32;;;;;;;6.73;4.97;;;9.60;99.90;;;;;;4935848;29;20187;-76
2020/12/12 13:03:57;;;;;;;4.67;4.20;;;9.70;99.90;;;;;;4935536;29;20179;-76
2020/12/12 13:06:28;;;;;;;7.57;6.03;;;9.70;99.90;;;;;;4935921;29;20184;-76
2020/12/12 13:08:57;;;;;;;6.33;5.03;;;9.70;99.90;;;;;;4935914;29;20187;-76
2020/12/12 13:11:24;;;;;;;5.17;4.67;;;9.70;99.90;;;;;;4935848;29;20831;-76
2020/12/12 13:13:50;;;;;;;7.07;4.93;;;9.70;99.90;;;;;;4935864;29;20434;-75
2020/12/12 13:16:18;;;;;;;7.07;4.10;;;9.70;99.90;;;;;;4938598;29;20589;-76
2020/12/12 13:18:55;;;;;;;5.37;4.73;;;9.80;99.90;;;;;;4939633;29;20940;-76
2020/12/12 13:24:42;;;;;;;6.83;5.00;;;9.80;99.90;;;;;;4939207;29;20407;-74
2020/12/12 13:27:08;;;;;;;6.10;5.23;;;9.80;99.90;;;;;;4939565;29;20423;-74
2020/12/12 13:32:18;;;;;;;4.37;3.97;;;9.90;99.90;;;;;;4939243;29;20202;-76
2020/12/12 13:34:44;;;;;;;6.93;5.13;;;10.00;99.90;;;;;;4940372;29;20926;-76
2020/12/12 13:37:09;;;;;;;5.70;4.77;;;10.00;99.90;;;;;;4939679;29;20682;-78
2020/12/12 13:42:57;;;;;;;5.73;4.93;;;9.90;99.90;;;;;;4939472;29;20164;-76
2020/12/12 13:48:45;;;;;;;4.60;4.00;;;10.00;99.90;;;;;;4940463;29;20633;-77
2020/12/12 13:51:11;;;;;;;6.47;3.73;;;10.00;99.90;;;;;;4938759;29;20522;-80
2020/12/12 13:53:36;;;;;;;5.57;4.80;;;10.00;99.90;;;;;;4938881;29;20225;-79
2020/12/12 13:59:24;;;;;;;5.17;4.67;;;9.90;99.90;;;;;;4938553;29;20174;-74
2020/12/12 14:01:51;;;;;;;6.23;4.80;;;9.80;99.90;;;;;;4938483;29;20427;-74
2020/12/12 14:04:17;;;;;;;7.77;5.40;;;9.70;99.90;;;;;;4938461;29;20511;-76
2020/12/12 14:07:03;;;;;;;7.60;4.97;;;9.90;99.90;;;;;;4938632;29;20435;-77
2020/12/12 14:10:34;;;;;;;7.63;4.80;;;10.10;99.90;;;;;;4938092;29;20415;-74
2020/12/12 14:24:38;;;;;;;6.40;4.77;;;9.90;99.90;;;;;;4937542;29;20547;-81
2020/12/12 14:33:09;;;;;;;8.60;6.23;;;9.80;99.90;;;;;;4937688;29;20818;-81
2020/12/12 14:38:57;;;;;;;6.20;5.60;;;9.90;99.90;;;;;;4935542;29;20626;-81
2020/12/12 14:41:22;;;;;;;8.57;6.60;;;9.90;99.90;;;;;;4937498;29;20513;-81
2020/12/12 14:43:48;;;;;;;6.93;5.63;;;9.80;99.90;;;;;;4937871;29;20213;-81
2020/12/12 14:49:35;;;;;;;9.13;7.20;;;9.90;99.90;;;;;;4937529;29;20278;-81
2020/12/12 14:52:01;;;;;;;7.37;5.80;;;9.90;99.90;;;;;;4937803;29;20509;-82
2020/12/12 14:54:28;;;;;;;10.23;6.63;;;9.90;99.90;;;;;;4937782;29;20262;-81
2020/12/12 15:00:16;;;;;;;8.00;6.03;;;9.90;99.90;;;;;;4937356;29;20503;-81
2020/12/12 15:02:41;;;;;;;13.63;6.80;;;10.00;99.90;;;;;;4937378;29;20988;-81
2020/12/12 15:08:29;;;;;;;7.87;6.60;;;10.00;99.90;;;;;;4937231;29;20190;-81
2020/12/12 15:10:54;;;;;;;8.57;6.50;;;10.00;99.90;;;;;;4936958;29;20423;-80
2020/12/12 15:13:20;;;;;;;8.33;6.07;;;9.90;99.90;;;;;;4936957;29;20187;-81
2020/12/12 15:15:45;;;;;;;8.47;6.50;;;9.90;99.90;;;;;;4936949;29;20203;-81
2020/12/12 15:21:33;;;;;;;9.90;6.80;;;10.00;99.90;;;;;;4936981;29;20240;-82
2020/12/12 15:23:58;;;;;;;14.00;7.33;;;9.90;99.90;;;;;;4937233;29;20434;-80
2020/12/12 15:29:46;;;;;;;9.97;7.27;;;9.80;99.90;;;;;;4936881;29;20250;-76
2020/12/12 15:32:16;;;;;;;14.20;6.33;;;9.80;99.90;;;;;;4936881;29;20431;-75
2020/12/12 15:34:42;;;;;;;12.03;8.03;;;10.00;99.90;;;;;;4937162;29;20506;-75
2020/12/12 15:40:31;;;;;;;13.43;8.47;;;10.60;99.90;;;;;;4925272;29;20337;-80
2020/12/12 15:42:56;;;;;;;14.60;7.83;;;10.70;99.90;;;;;;4936749;29;20442;-77
2020/12/12 15:48:44;;;;;;;17.60;7.60;;;10.70;99.90;;;;;;4936796;29;20182;-80
2020/12/12 15:54:31;;;;;;;15.70;7.97;;;10.60;99.90;;;;;;4936415;29;20162;-81
2020/12/12 15:56:57;;;;;;;15.40;9.30;;;10.60;99.90;;;;;;4936510;29;20475;-79
2020/12/12 15:59:24;;;;;;;16.13;8.97;;;10.60;99.90;;;;;;4936485;29;20293;-78
2020/12/12 16:01:50;;;;;;;12.50;8.00;;;10.50;99.90;;;;;;4936419;29;20486;-76
2020/12/12 16:04:15;;;;;;;16.40;9.30;;;10.50;99.90;;;;;;4936224;29;20885;-76
2020/12/12 16:06:41;;;;;;;14.13;9.90;;;10.40;99.90;;;;;;4936406;29;20218;-77
2020/12/12 16:09:07;;;;;;;14.73;10.10;;;10.40;99.90;;;;;;4936531;29;20167;-78
2020/12/12 16:11:33;;;;;;;14.43;9.33;;;10.30;99.90;;;;;;4936762;29;20209;-79
2020/12/12 16:17:20;;;;;;;21.63;11.43;;;10.20;99.90;;;;;;4936427;29;20466;-81
2020/12/12 16:19:46;;;;;;;15.83;9.97;;;10.20;99.90;;;;;;4936469;29;20423;-80
2020/12/12 16:22:11;;;;;;;19.20;10.63;;;10.20;99.90;;;;;;4936301;29;20270;-80
2020/12/12 16:24:37;;;;;;;19.00;12.27;;;10.20;99.90;;;;;;4936279;29;20352;-80
2020/12/12 16:27:02;;;;;;;21.07;10.47;;;10.10;99.90;;;;;;4936250;29;20181;-82
2020/12/12 16:29:28;;;;;;;16.43;10.47;;;10.10;99.90;;;;;;4936316;29;20303;-78
2020/12/12 16:31:54;;;;;;;25.53;12.30;;;10.20;99.90;;;;;;4943054;29;20226;-81
2020/12/12 16:34:20;;;;;;;22.23;11.07;;;10.10;99.90;;;;;;4958110;29;20160;-77
2020/12/12 16:40:07;;;;;;;15.90;11.57;;;10.00;99.90;;;;;;4935787;29;20225;-78
2020/12/12 16:42:33;;;;;;;22.03;12.00;;;10.00;99.90;;;;;;4936113;29;20419;-78
2020/12/12 16:44:58;;;;;;;17.33;10.77;;;10.00;99.90;;;;;;4936171;29;20186;-78
2020/12/12 16:47:24;;;;;;;22.60;13.80;;;9.90;99.90;;;;;;4935731;29;20210;-76
2020/12/12 16:49:49;;;;;;;23.77;12.40;;;9.90;99.90;;;;;;4938658;29;20564;-79
2020/12/12 16:52:15;;;;;;;22.73;13.20;;;9.90;99.90;;;;;;4939702;29;20171;-78
2020/12/12 16:58:02;;;;;;;20.90;13.53;;;9.90;99.90;;;;;;4939482;29;20181;-74
2020/12/12 17:00:29;;;;;;;24.20;13.37;;;9.90;99.90;;;;;;4939652;29;20522;-73
2020/12/12 17:02:54;;;;;;;17.90;12.80;;;9.90;99.90;;;;;;4939379;29;20175;-84
2020/12/12 17:05:21;;;;;;;25.73;14.43;;;9.90;99.90;;;;;;4940199;29;20435;-83
2020/12/12 17:07:52;;;;;;;31.90;14.87;;;9.90;99.90;;;;;;4939820;29;20439;-78
2020/12/12 17:13:39;;;;;;;29.13;15.27;;;9.90;99.90;;;;;;4939533;29;20410;-71
2020/12/12 17:19:27;;;;;;;36.10;17.90;;;9.90;99.90;;;;;;4939072;29;20719;-75
2020/12/12 17:21:53;;;;;;;20.13;13.50;;;9.90;99.90;;;;;;4939604;29;20415;-73
2020/12/12 17:24:20;;;;;;;25.60;15.60;;;9.90;99.90;;;;;;4939635;29;20446;-74
2020/12/12 17:26:47;;;;;;;33.57;17.83;;;10.00;99.90;;;;;;4939305;29;20190;-74
2020/12/12 17:29:15;;;;;;;30.33;17.03;;;10.00;99.90;;;;;;4939044;29;20785;-74
2020/12/12 17:31:42;;;;;;;22.77;15.03;;;10.00;99.90;;;;;;4939025;29;20493;-76
2020/12/12 17:34:08;;;;;;;30.83;16.87;;;10.00;99.90;;;;;;4938571;29;20419;-75
2020/12/12 17:36:38;;;;;;;29.23;16.57;;;9.90;99.90;;;;;;4938870;29;20467;-75
2020/12/12 17:42:32;;;;;;;28.30;19.03;;;9.90;99.90;;;;;;4928673;29;20586;-76
2020/12/12 17:48:19;;;;;;;32.53;17.50;;;9.90;99.90;;;;;;4938525;29;20283;-81
2020/12/12 17:54:07;;;;;;;26.90;16.60;;;9.80;99.90;;;;;;4938470;29;20195;-75
2020/12/12 17:56:34;;;;;;;34.90;18.90;;;9.80;99.90;;;;;;4938466;29;20496;-75
2020/12/12 17:58:59;;;;;;;29.93;18.50;;;9.80;99.90;;;;;;4938530;29;20175;-78
2020/12/12 18:01:25;;;;;;;32.70;19.13;;;9.70;99.90;;;;;;4937826;29;20445;-75
2020/12/12 18:07:13;;;;;;;32.63;17.83;;;9.70;99.90;;;;;;4938404;29;20406;-75
2020/12/12 18:09:38;;;;;;;25.87;16.50;;;9.70;99.90;;;;;;4938329;29;20423;-74
2020/12/12 18:12:04;;;;;;;28.60;15.97;;;9.70;99.90;;;;;;4938335;29;20547;-74
2020/12/12 18:14:30;;;;;;;30.53;17.50;;;9.80;99.90;;;;;;4938679;29;20175;-80
2020/12/12 18:16:56;;;;;;;27.67;17.03;;;9.80;99.90;;;;;;4938273;29;20215;-81
2020/12/12 18:22:44;;;;;;;28.10;16.17;;;9.80;99.90;;;;;;4937750;29;20163;-76
2020/12/12 18:28:31;;;;;;;32.03;16.17;;;9.80;99.90;;;;;;4938111;29;20430;-80
2020/12/12 18:34:19;;;;;;;31.83;17.30;;;9.80;99.90;;;;;;4937829;29;20162;-79
2020/12/12 18:36:45;;;;;;;30.87;16.17;;;9.80;99.90;;;;;;4937404;29;20565;-78
2020/12/12 18:39:12;;;;;;;34.50;18.57;;;9.80;99.90;;;;;;4937869;29;20175;-79
2020/12/12 18:41:39;;;;;;;27.10;16.13;;;9.80;99.90;;;;;;4937513;29;20477;-78
2020/12/12 18:44:05;;;;;;;36.67;16.40;;;9.90;99.90;;;;;;4937493;29;20828;-79
2020/12/12 18:49:52;;;;;;;22.93;16.60;;;9.90;99.90;;;;;;4937412;29;20233;-79
2020/12/12 18:52:20;;;;;;;25.90;16.63;;;9.90;99.90;;;;;;4937567;29;20558;-78
2020/12/12 18:54:46;;;;;;;30.60;18.80;;;9.90;99.90;;;;;;4937195;29;20431;-78
2020/12/12 18:57:17;;;;;;;30.00;18.47;;;9.90;99.90;;;;;;4937240;29;20467;-79
2020/12/12 18:59:43;;;;;;;36.80;25.03;;;9.90;99.90;;;;;;4937350;29;20467;-76
2020/12/12 19:02:15;;;;;;;27.90;19.20;;;9.90;99.90;;;;;;4937332;29;20423;-76
2020/12/12 19:04:40;;;;;;;29.90;16.77;;;9.90;99.90;;;;;;4937093;29;20434;-77
2020/12/12 19:07:05;;;;;;;28.63;17.73;;;9.90;99.90;;;;;;4937261;29;20423;-78
2020/12/12 19:12:53;;;;;;;30.73;19.80;;;9.90;99.90;;;;;;4936089;29;20549;-79
2020/12/12 19:15:20;;;;;;;34.60;19.57;;;9.90;99.90;;;;;;4937091;29;20431;-79
2020/12/12 19:17:48;;;;;;;33.20;18.30;;;9.90;99.90;;;;;;4937098;29;20861;-79
2020/12/12 19:20:13;;;;;;;27.47;18.07;;;9.90;99.90;;;;;;4936949;29;20423;-76
2020/12/12 19:22:39;;;;;;;36.77;19.20;;;10.00;99.90;;;;;;4937415;29;20465;-76
2020/12/12 19:28:26;;;;;;;35.63;17.83;;;9.90;99.90;;;;;;4936589;29;20210;-74
2020/12/12 19:34:14;;;;;;;30.93;18.90;;;9.90;99.90;;;;;;4936600;29;20548;-74
2020/12/12 19:36:41;;;;;;;35.50;18.87;;;9.90;99.90;;;;;;4936699;29;20478;-74
2020/12/12 19:39:08;;;;;;;35.83;19.27;;;9.90;99.90;;;;;;4936661;29;20270;-75
2020/12/12 19:41:34;;;;;;;28.17;17.20;;;9.90;99.90;;;;;;4936472;29;20490;-74
2020/12/12 19:44:00;;;;;;;27.40;19.10;;;10.00;99.90;;;;;;4936658;29;20831;-76
2020/12/12 19:49:48;;;;;;;29.63;17.80;;;10.00;99.90;;;;;;4936394;29;20167;-81
2020/12/12 19:55:35;;;;;;;25.13;16.73;;;9.90;99.90;;;;;;4937913;29;20575;-79
2020/12/12 19:58:01;;;;;;;28.00;17.83;;;10.00;99.90;;;;;;4936588;29;20438;-83
2020/12/12 20:03:49;;;;;;;30.20;17.67;;;10.00;99.90;;;;;;4936353;29;20171;-80
2020/12/12 20:09:39;;;;;;;31.80;18.10;;;9.90;99.90;;;;;;4936195;29;20407;-81
2020/12/12 20:12:05;;;;;;;32.17;17.53;;;10.00;99.90;;;;;;4936679;29;20439;-84
2020/12/12 20:17:52;;;;;;;28.07;17.47;;;10.00;99.90;;;;;;4936161;29;20195;-83
2020/12/12 20:23:40;;;;;;;30.10;18.03;;;9.90;99.90;;;;;;4937290;29;20167;-85
2020/12/12 20:26:06;;;;;;;29.93;18.37;;;9.90;99.90;;;;;;4940450;29;20427;-79
2020/12/12 20:28:31;;;;;;;30.00;18.70;;;9.90;99.90;;;;;;4940248;29;20185;-80
2020/12/12 20:30:57;;;;;;;36.17;21.07;;;9.90;99.90;;;;;;4941329;29;20435;-83
2020/12/12 20:36:46;;;;;;;30.00;18.57;;;10.00;99.90;;;;;;4940184;29;20262;-81
2020/12/12 20:39:11;;;;;;;34.23;19.47;;;10.00;99.90;;;;;;4939956;29;20526;-80
2020/12/12 20:41:37;;;;;;;35.73;19.90;;;9.90;99.90;;;;;;4939742;29;20510;-82
2020/12/12 20:44:03;;;;;;;32.23;18.60;;;9.90;99.90;;;;;;4939968;29;20528;-80
2020/12/12 20:46:31;;;;;;;35.17;20.67;;;9.90;99.90;;;;;;4939940;29;20175;-81
2020/12/12 20:48:57;;;;;;;34.17;19.87;;;9.90;99.90;;;;;;4940270;29;20222;-84
2020/12/12 20:51:23;;;;;;;30.43;16.90;;;9.90;99.90;;;;;;4939948;29;20497;-79
2020/12/12 20:53:49;;;;;;;32.40;18.40;;;10.00;99.90;;;;;;4939777;29;20467;-80
2020/12/12 20:56:14;;;;;;;34.60;19.83;;;10.00;99.90;;;;;;4939328;29;20458;-78
2020/12/12 20:58:41;;;;;;;37.80;20.97;;;9.90;99.90;;;;;;4939905;29;20214;-80
2020/12/12 21:04:28;;;;;;;38.47;20.00;;;9.90;99.90;;;;;;4939336;29;20407;-79
2020/12/12 21:06:54;;;;;;;29.83;17.53;;;9.90;99.90;;;;;;4939599;29;20426;-83
2020/12/12 21:09:19;;;;;;;35.97;21.03;;;9.90;99.90;;;;;;4940072;29;20179;-83
2020/12/12 21:11:45;;;;;;;36.47;20.80;;;9.90;99.90;;;;;;4939966;29;20327;-79
2020/12/12 21:14:11;;;;;;;32.43;19.60;;;9.90;99.90;;;;;;4939559;29;20192;-79
2020/12/12 21:16:37;;;;;;;33.27;19.77;;;9.90;99.90;;;;;;4939365;29;20215;-79